Time;durP1;ratioP1;P1;durP2;ratioP2;P2;SDS_P1;SDS_P2;PMS_P1;PMS_P2;Temp;Humidity;BMP_temperature;BMP_pressure;BME280_temperature;BME280_humidity;BME280_pressure;Samples;Min_cycle;Max_cycle;Signal;HPM_P1;HPM_P2
2022/07/20 00:00:53;;;;;;;3.60;1.23;;;;;;;35.89;24.90;100764.22;4856156;29;20498;-74
2022/07/20 00:03:23;;;;;;;2.15;0.90;;;;;;;35.87;26.71;100766.16;4859131;29;20049;-73
2022/07/20 00:05:52;;;;;;;2.28;1.38;;;;;;;35.87;25.42;100760.78;4864852;29;20084;-73
2022/07/20 00:13:47;;;;;;;1.67;1.20;;;;;;;35.88;22.40;100764.34;4860002;29;20568;-74
2022/07/20 00:16:16;;;;;;;3.35;1.23;;;;;;;35.89;23.71;100763.38;4860074;29;20050;-76
2022/07/20 00:18:46;;;;;;;1.30;1.20;;;;;;;35.91;24.76;100759.56;4866567;29;20115;-75
2022/07/20 00:21:15;;;;;;;2.63;1.10;;;;;;;35.91;27.31;100764.97;4864852;29;20056;-73
2022/07/20 00:23:43;;;;;;;2.45;1.05;;;;;;;35.88;25.86;100762.50;4863105;29;20045;-73
2022/07/20 00:26:12;;;;;;;3.75;1.67;;;;;;;35.83;25.81;100767.41;4869317;29;20504;-73
2022/07/20 00:28:41;;;;;;;3.35;1.20;;;;;;;35.76;22.25;100758.94;4875738;29;20130;-76
2022/07/20 00:31:09;;;;;;;1.83;1.08;;;;;;;35.68;24.00;100755.09;4863273;29;20053;-74
2022/07/20 00:33:38;;;;;;;5.13;1.38;;;;;;;35.65;25.37;100753.50;4875491;29;20080;-73
2022/07/20 00:36:09;;;;;;;1.52;0.90;;;;;;;35.62;25.29;100754.59;4873071;29;20659;-76
2022/07/20 00:38:37;;;;;;;6.70;1.30;;;;;;;35.59;24.99;100752.09;4876698;29;20412;-76
2022/07/20 00:41:06;;;;;;;2.53;1.40;;;;;;;35.58;26.09;100754.91;4892006;29;20063;-76
2022/07/20 00:43:56;;;;;;;5.25;1.30;;;;;;;35.57;23.77;100756.72;4875990;29;20056;-78
2022/07/20 00:46:25;;;;;;;2.35;1.30;;;;;;;35.55;24.28;100756.03;4869042;29;20069;-74
2022/07/20 00:48:53;;;;;;;2.17;1.20;;;;;;;35.51;25.54;100749.16;4877559;29;20048;-76
2022/07/20 00:51:24;;;;;;;2.08;1.30;;;;;;;35.46;23.68;100748.59;4875884;29;20596;-76
2022/07/20 00:53:54;;;;;;;4.13;1.30;;;;;;;35.37;26.29;100738.53;4872454;29;20052;-78
2022/07/20 00:56:23;;;;;;;3.58;1.40;;;;;;;35.31;23.87;100747.09;4864046;29;20065;-73
2022/07/20 00:58:52;;;;;;;3.28;1.60;;;;;;;35.19;22.68;100743.50;4871740;29;20129;-74
2022/07/20 01:01:20;;;;;;;2.65;1.10;;;;;;;35.11;22.77;100745.84;4870220;29;20089;-76
2022/07/20 01:03:49;;;;;;;1.63;1.23;;;;;;;35.05;23.10;100744.47;4880574;29;20056;-78
2022/07/20 01:06:18;;;;;;;1.17;0.90;;;;;;;35.04;21.65;100746.28;4871452;29;20109;-77
2022/07/20 01:08:48;;;;;;;1.85;1.10;;;;;;;35.03;22.87;100743.72;4870568;29;20088;-73
2022/07/20 01:11:17;;;;;;;1.67;1.20;;;;;;;34.99;23.46;100747.63;4879152;29;20045;-74
2022/07/20 01:13:46;;;;;;;2.58;1.23;;;;;;;34.96;23.86;100742.47;4869580;29;21182;-74
2022/07/20 01:16:15;;;;;;;3.38;1.08;;;;;;;34.92;24.65;100749.03;4873321;29;20045;-76
2022/07/20 01:18:44;;;;;;;2.05;1.52;;;;;;;34.88;24.15;100751.06;4879644;29;20049;-75
2022/07/20 01:21:14;;;;;;;3.30;1.30;;;;;;;34.85;23.43;100750.47;4878138;29;20089;-75
2022/07/20 01:23:43;;;;;;;1.48;1.38;;;;;;;34.81;24.46;100744.44;4876976;29;20053;-74
2022/07/20 01:26:11;;;;;;;7.22;2.30;;;;;;;34.74;24.85;100743.16;4861849;29;20127;-74
2022/07/20 01:28:40;;;;;;;4.72;1.40;;;;;;;34.68;25.88;100744.44;4857046;29;20726;-74
2022/07/20 01:31:09;;;;;;;2.92;1.30;;;;;;;34.64;25.89;100737.59;4859554;29;20113;-75
2022/07/20 01:33:37;;;;;;;2.25;1.23;;;;;;;34.62;27.03;100744.91;4856172;29;20636;-76
2022/07/20 01:36:06;;;;;;;6.20;1.13;;;;;;;34.61;28.41;100737.81;4858223;29;20057;-74
2022/07/20 01:38:37;;;;;;;5.95;1.55;;;;;;;34.58;28.86;100740.69;4849378;29;20054;-74
2022/07/20 01:41:05;;;;;;;2.08;1.13;;;;;;;34.54;27.50;100737.34;4848412;29;20046;-74
2022/07/20 01:43:34;;;;;;;2.15;1.40;;;;;;;34.51;27.98;100742.94;4850427;29;20057;-74
2022/07/20 01:46:03;;;;;;;1.58;1.15;;;;;;;34.46;27.71;100733.53;4853926;29;20101;-74
2022/07/20 01:48:31;;;;;;;1.88;1.30;;;;;;;34.39;29.04;100738.47;4851865;29;20618;-74
2022/07/20 01:51:00;;;;;;;2.13;1.30;;;;;;;34.33;28.14;100738.88;4854031;29;20046;-75
2022/07/20 01:53:28;;;;;;;2.72;1.38;;;;;;;34.27;27.71;100740.19;4846799;29;20528;-74
2022/07/20 01:55:58;;;;;;;3.47;1.33;;;;;;;34.24;28.55;100740.38;4847619;29;20963;-74
2022/07/20 01:58:27;;;;;;;3.90;1.42;;;;;;;34.19;29.04;100737.19;4855606;29;20087;-75
2022/07/20 02:00:56;;;;;;;4.93;1.25;;;;;;;34.12;29.30;100731.38;4853530;29;20053;-75
2022/07/20 02:03:24;;;;;;;2.00;1.27;;;;;;;34.04;28.96;100727.47;4859328;29;20056;-75
2022/07/20 02:05:53;;;;;;;1.98;1.20;;;;;;;33.97;28.35;100735.97;4855892;29;20049;-75
2022/07/20 02:08:25;;;;;;;2.45;1.27;;;;;;;33.93;30.71;100731.78;4854514;29;20041;-75
2022/07/20 02:10:53;;;;;;;3.17;1.35;;;;;;;33.83;28.07;100735.19;4859694;29;20053;-74
2022/07/20 02:13:23;;;;;;;4.38;1.40;;;;;;;33.78;29.02;100740.88;4851205;29;20064;-75
2022/07/20 02:18:43;;;;;;;1.67;1.23;;;;;;;33.64;28.23;100744.50;4841827;29;20416;-72
2022/07/20 02:21:11;;;;;;;2.13;1.60;;;;;;;33.60;30.07;100740.28;4851634;29;20114;-73
2022/07/20 02:23:40;;;;;;;3.22;1.23;;;;;;;33.53;29.21;100742.47;4848609;29;20546;-72
2022/07/20 02:26:09;;;;;;;1.85;1.60;;;;;;;33.48;27.77;100747.31;4854832;29;20828;-70
2022/07/20 02:28:40;;;;;;;3.38;1.20;;;;;;;33.43;29.64;100749.44;4859206;29;20503;-71
2022/07/20 02:31:09;;;;;;;2.25;1.40;;;;;;;33.36;29.47;100740.09;4851846;29;20538;-71
2022/07/20 02:33:38;;;;;;;2.63;1.40;;;;;;;33.30;29.18;100753.91;4856970;29;20066;-72
2022/07/20 02:36:07;;;;;;;2.50;1.60;;;;;;;33.21;28.57;100754.50;4854205;29;20564;-72
2022/07/20 02:38:36;;;;;;;3.13;1.27;;;;;;;33.14;29.13;100754.03;4845702;29;20085;-72
2022/07/20 02:41:04;;;;;;;4.25;1.45;;;;;;;33.08;30.04;100755.31;4855321;29;20060;-73
2022/07/20 02:43:33;;;;;;;3.00;1.17;;;;;;;32.96;29.44;100756.06;4856789;29;20049;-72
2022/07/20 02:46:03;;;;;;;3.63;1.20;;;;;;;32.82;30.58;100750.72;4855254;29;20049;-72
2022/07/20 02:48:32;;;;;;;1.50;1.20;;;;;;;32.73;31.49;100760.22;4854217;29;20127;-72
2022/07/20 02:51:00;;;;;;;5.72;1.63;;;;;;;32.64;31.30;100761.63;4845577;29;20559;-73
2022/07/20 02:53:29;;;;;;;3.35;1.40;;;;;;;32.57;31.04;100748.75;4854938;29;20668;-73
2022/07/20 02:55:57;;;;;;;2.28;1.58;;;;;;;32.48;32.17;100756.38;4846158;29;20049;-72
2022/07/20 02:58:26;;;;;;;2.50;1.30;;;;;;;32.39;32.01;100756.06;4858261;29;20060;-73
2022/07/20 03:00:54;;;;;;;2.97;1.30;;;;;;;32.28;33.90;100760.28;4847819;29;20057;-72
2022/07/20 03:03:25;;;;;;;3.05;1.83;;;;;;;32.17;31.10;100762.75;4856919;29;20157;-71
2022/07/20 03:05:54;;;;;;;2.17;1.37;;;;;;;32.05;32.27;100764.38;4856180;29;20083;-72
2022/07/20 03:08:22;;;;;;;1.80;1.40;;;;;;;31.98;32.98;100760.34;4853929;29;20058;-73
2022/07/20 03:10:51;;;;;;;2.00;1.50;;;;;;;31.88;32.70;100762.66;4863065;29;20101;-71
2022/07/20 03:13:20;;;;;;;7.68;1.73;;;;;;;31.80;32.83;100772.13;4864492;29;20057;-70
2022/07/20 03:15:48;;;;;;;1.52;1.38;;;;;;;31.67;33.65;100759.44;4863270;29;20053;-72
2022/07/20 03:18:17;;;;;;;1.85;1.35;;;;;;;31.60;32.60;100771.44;4856744;29;20158;-71
2022/07/20 03:20:47;;;;;;;2.17;1.60;;;;;;;31.47;33.65;100765.97;4848431;29;20046;-71
2022/07/20 03:23:15;;;;;;;4.65;1.40;;;;;;;31.35;33.72;100769.31;4848620;29;20062;-71
2022/07/20 03:25:44;;;;;;;5.20;1.48;;;;;;;31.25;33.57;100784.16;4865156;29;20467;-72
2022/07/20 03:28:12;;;;;;;3.00;1.42;;;;;;;31.16;36.75;100782.84;4876398;29;20722;-71
2022/07/20 03:30:41;;;;;;;2.80;1.50;;;;;;;31.04;36.76;100787.09;4876902;29;20534;-71
2022/07/20 03:33:10;;;;;;;5.93;1.63;;;;;;;30.92;36.11;100795.75;4875879;29;20118;-71
2022/07/20 03:35:38;;;;;;;4.03;1.30;;;;;;;30.81;36.07;100798.13;4872948;29;20056;-71
2022/07/20 03:38:08;;;;;;;3.35;1.42;;;;;;;30.69;36.61;100795.19;4872128;29;20060;-71
2022/07/20 03:40:37;;;;;;;2.17;1.50;;;;;;;30.63;37.06;100797.34;4879406;29;20439;-71
2022/07/20 03:43:05;;;;;;;7.05;1.40;;;;;;;30.50;38.15;100796.25;4872984;29;20056;-71
2022/07/20 03:45:34;;;;;;;5.95;1.60;;;;;;;30.38;37.93;100797.78;4873528;29;20057;-71
2022/07/20 03:48:03;;;;;;;6.05;1.50;;;;;;;30.32;38.44;100808.75;4869649;29;20108;-69
2022/07/20 03:50:31;;;;;;;5.70;1.63;;;;;;;30.25;38.93;100803.69;4878461;29;20065;-72
2022/07/20 03:53:00;;;;;;;4.03;1.30;;;;;;;30.12;41.47;100789.25;4876489;29;20097;-71
2022/07/20 03:55:30;;;;;;;2.28;1.40;;;;;;;30.09;40.98;100813.44;4878015;29;20460;-70
2022/07/20 03:57:58;;;;;;;4.05;1.60;;;;;;;29.96;40.52;100817.69;4876182;29;20500;-71
2022/07/20 04:00:27;;;;;;;2.17;1.20;;;;;;;29.70;41.43;100817.19;4873334;29;20060;-70
2022/07/20 04:02:56;;;;;;;3.28;1.52;;;;;;;29.52;42.52;100826.06;4882824;29;20056;-70
2022/07/20 04:05:24;;;;;;;6.18;1.80;;;;;;;29.37;41.37;100831.19;4882661;29;20057;-71
2022/07/20 04:07:53;;;;;;;4.85;1.80;;;;;;;29.22;42.45;100830.09;4874777;29;20041;-71
2022/07/20 04:10:22;;;;;;;6.05;1.67;;;;;;;29.12;43.02;100830.63;4873314;29;20081;-71
2022/07/20 04:12:52;;;;;;;4.50;1.58;;;;;;;29.04;43.44;100825.59;4873730;29;20452;-71
2022/07/20 04:15:20;;;;;;;2.53;1.58;;;;;;;28.95;43.48;100829.56;4876698;29;20049;-71
2022/07/20 04:17:49;;;;;;;4.35;1.50;;;;;;;28.86;43.33;100832.63;4877365;29;20049;-70
2022/07/20 04:20:17;;;;;;;4.10;1.80;;;;;;;28.76;43.95;100837.53;4870327;29;20164;-71
2022/07/20 04:22:46;;;;;;;4.85;1.60;;;;;;;28.67;43.63;100839.75;4872362;29;20045;-70
2022/07/20 04:25:15;;;;;;;2.70;1.50;;;;;;;28.52;44.29;100843.94;4873387;29;20047;-71
2022/07/20 04:27:44;;;;;;;7.45;1.65;;;;;;;28.38;45.74;100848.06;4854540;29;20485;-71
2022/07/20 04:30:15;;;;;;;8.23;2.00;;;;;;;28.27;45.31;100850.31;4859413;29;20045;-70
2022/07/20 04:32:44;;;;;;;4.55;1.77;;;;;;;28.15;45.62;100854.34;4850953;29;20064;-71
2022/07/20 04:35:13;;;;;;;7.03;1.48;;;;;;;28.09;45.92;100853.75;4851153;29;20045;-71
2022/07/20 04:37:42;;;;;;;3.47;1.55;;;;;;;28.03;45.57;100859.31;4865110;29;20080;-70
2022/07/20 04:40:12;;;;;;;1.95;1.52;;;;;;;27.97;46.89;100865.78;4857218;29;20054;-70
2022/07/20 04:42:40;;;;;;;6.38;1.58;;;;;;;27.88;47.09;100856.38;4865138;29;20137;-70
2022/07/20 04:45:10;;;;;;;4.13;1.70;;;;;;;27.78;46.90;100855.81;4858762;29;20061;-70
2022/07/20 04:47:40;;;;;;;2.38;1.58;;;;;;;27.69;47.44;100861.50;4858727;29;20053;-70
2022/07/20 04:50:10;;;;;;;4.95;1.60;;;;;;;27.58;47.27;100863.75;4857091;29;20057;-70
2022/07/20 04:52:39;;;;;;;5.55;1.60;;;;;;;27.50;47.60;100865.84;4857755;29;20065;-70
2022/07/20 04:55:09;;;;;;;2.50;1.55;;;;;;;27.41;47.63;100871.50;4860619;29;20049;-70
2022/07/20 04:57:37;;;;;;;2.70;1.83;;;;;;;27.30;47.54;100875.44;4853625;29;20050;-70
2022/07/20 05:00:08;;;;;;;2.40;1.60;;;;;;;27.21;47.69;100873.13;4861746;29;20053;-70
2022/07/20 05:02:36;;;;;;;3.63;1.90;;;;;;;27.07;48.86;100878.06;4849368;29;20123;-70
2022/07/20 05:05:08;;;;;;;4.47;1.48;;;;;;;26.95;49.33;100890.00;4857524;29;20780;-71
2022/07/20 05:07:36;;;;;;;2.38;1.63;;;;;;;26.85;51.44;100893.94;4852264;29;20544;-70
2022/07/20 05:10:05;;;;;;;3.80;1.40;;;;;;;26.72;52.48;100898.81;4860380;29;20192;-71
2022/07/20 05:12:34;;;;;;;1.75;1.60;;;;;;;26.63;54.11;100893.81;4852021;29;20536;-70
2022/07/20 05:15:02;;;;;;;5.43;1.73;;;;;;;26.49;52.06;100897.78;4857554;29;20515;-71
2022/07/20 05:17:31;;;;;;;2.63;1.95;;;;;;;26.36;53.06;100896.47;4850858;29;20053;-71
2022/07/20 05:19:59;;;;;;;3.05;1.58;;;;;;;26.20;51.19;100896.09;4863370;29;20100;-72
2022/07/20 05:22:30;;;;;;;5.32;1.77;;;;;;;26.12;52.26;100899.03;4854920;29;20129;-70
2022/07/20 05:24:58;;;;;;;4.43;2.10;;;;;;;26.07;52.46;100897.47;4851293;29;20044;-71
2022/07/20 05:27:27;;;;;;;2.85;1.88;;;;;;;25.98;53.11;100898.63;4853380;29;20068;-71
2022/07/20 05:29:56;;;;;;;1.65;1.10;;;;;;;25.90;50.22;100895.34;4848860;29;20625;-71
2022/07/20 05:32:24;;;;;;;3.75;1.70;;;;;;;25.88;53.06;100905.13;4860223;29;20594;-69
2022/07/20 05:34:54;;;;;;;2.03;1.00;;;;;;;25.83;50.81;100904.38;4853023;29;20726;-70
2022/07/20 05:37:23;;;;;;;3.35;1.20;;;;;;;25.78;50.10;100903.66;4854678;29;20114;-69
2022/07/20 05:39:53;;;;;;;5.47;1.20;;;;;;;25.78;49.70;100908.94;4863082;29;20762;-72
2022/07/20 05:42:22;;;;;;;5.13;1.02;;;;;;;25.77;49.33;100907.19;4867997;29;20053;-74
2022/07/20 05:44:50;;;;;;;3.22;1.30;;;;;;;25.74;50.56;100902.00;4855362;29;20741;-72
2022/07/20 05:47:19;;;;;;;1.90;1.20;;;;;;;25.72;49.81;100904.69;4854028;29;20140;-74
2022/07/20 05:49:48;;;;;;;4.00;1.10;;;;;;;25.73;50.20;100900.28;4851226;29;20061;-72
2022/07/20 05:52:17;;;;;;;2.55;1.05;;;;;;;25.73;49.57;100900.28;4845010;29;20581;-73
2022/07/20 05:54:45;;;;;;;2.10;1.17;;;;;;;25.75;48.86;100906.38;4858148;29;20056;-71
2022/07/20 05:57:16;;;;;;;1.70;0.98;;;;;;;25.73;48.86;100897.63;4856994;29;20077;-74
2022/07/20 05:59:45;;;;;;;1.45;1.00;;;;;;;25.73;48.84;100902.94;4859568;29;20410;-73
2022/07/20 06:02:13;;;;;;;1.45;0.82;;;;;;;25.71;48.70;100905.63;4857603;29;20513;-73
2022/07/20 06:04:42;;;;;;;5.40;1.05;;;;;;;25.68;48.27;100905.72;4857057;29;20109;-74
2022/07/20 06:07:10;;;;;;;2.15;1.27;;;;;;;25.65;48.30;100909.31;4851431;29;20060;-72
2022/07/20 06:09:39;;;;;;;3.47;1.00;;;;;;;25.65;48.07;100911.97;4851007;29;20732;-72
2022/07/20 06:12:09;;;;;;;2.38;1.25;;;;;;;25.65;48.30;100924.34;4855384;29;20042;-74
2022/07/20 06:14:39;;;;;;;1.17;0.80;;;;;;;25.57;49.56;100921.94;4853184;29;20060;-74
2022/07/20 06:17:07;;;;;;;4.60;1.10;;;;;;;25.50;48.82;100920.41;4844846;29;20065;-74
2022/07/20 06:19:36;;;;;;;1.02;0.80;;;;;;;25.45;50.99;100919.69;4859659;29;20049;-73
2022/07/20 06:22:05;;;;;;;1.65;1.02;;;;;;;25.41;49.73;100918.03;4856569;29;20088;-72
2022/07/20 06:24:33;;;;;;;1.50;0.88;;;;;;;25.40;50.38;100929.50;4856977;29;21120;-73
2022/07/20 06:27:02;;;;;;;3.03;1.00;;;;;;;25.38;49.94;100923.38;4869176;28;20428;-73
2022/07/20 06:29:31;;;;;;;3.88;1.00;;;;;;;25.36;48.75;100918.16;4877437;29;20056;-74
2022/07/20 06:32:01;;;;;;;2.15;0.73;;;;;;;25.34;46.85;100917.34;4872259;29;20049;-73
2022/07/20 06:34:29;;;;;;;3.67;1.10;;;;;;;25.33;47.45;100914.72;4863045;29;20045;-73
2022/07/20 06:36:58;;;;;;;1.33;0.98;;;;;;;25.31;47.43;100908.59;4873601;29;20123;-73
2022/07/20 06:39:27;;;;;;;3.10;0.90;;;;;;;25.26;47.37;100906.94;4880105;29;20078;-72
2022/07/20 06:41:55;;;;;;;4.43;1.00;;;;;;;25.23;47.23;100909.69;4866035;29;20057;-73
2022/07/20 06:44:24;;;;;;;2.10;0.80;;;;;;;25.19;48.51;100915.13;4872568;29;20053;-72
2022/07/20 06:46:52;;;;;;;1.27;0.90;;;;;;;25.11;49.07;100914.44;4871029;29;20095;-74
2022/07/20 06:49:22;;;;;;;2.70;1.10;;;;;;;25.03;50.71;100917.28;4872488;29;20064;-72
2022/07/20 06:51:51;;;;;;;3.28;0.90;;;;;;;24.94;49.86;100921.06;4869159;29;20229;-73
2022/07/20 06:54:19;;;;;;;2.42;0.73;;;;;;;24.88;48.13;100924.75;4864142;29;20053;-72
2022/07/20 06:56:48;;;;;;;5.50;1.55;;;;;;;24.84;50.68;100917.81;4871729;29;20057;-71
2022/07/20 06:59:17;;;;;;;2.53;1.67;;;;;;;24.80;53.07;100929.38;4881272;29;20053;-72
2022/07/20 07:01:45;;;;;;;8.63;2.05;;;;;;;24.75;53.96;100928.63;4871862;29;20057;-74
2022/07/20 07:04:14;;;;;;;4.88;2.08;;;;;;;24.67;54.65;100933.28;4868931;29;20049;-72
2022/07/20 07:06:44;;;;;;;5.10;2.00;;;;;;;24.61;54.30;100928.13;4864903;29;20408;-72
2022/07/20 07:09:12;;;;;;;3.67;1.70;;;;;;;24.53;55.15;100932.75;4866203;29;20420;-72
2022/07/20 07:11:41;;;;;;;3.97;1.73;;;;;;;24.42;55.08;100940.94;4863688;29;20125;-72
2022/07/20 07:14:10;;;;;;;3.08;1.73;;;;;;;24.31;55.22;100945.63;4860757;29;20050;-71
2022/07/20 07:16:38;;;;;;;3.25;2.08;;;;;;;24.18;55.55;100947.69;4875092;29;20059;-71
2022/07/20 07:19:07;;;;;;;3.35;1.65;;;;;;;24.08;56.30;100959.38;4870670;29;20049;-71
2022/07/20 07:21:36;;;;;;;5.35;1.73;;;;;;;23.99;55.67;100958.69;4874148;29;20406;-71
2022/07/20 07:24:07;;;;;;;3.60;2.10;;;;;;;23.92;56.47;100961.50;4866895;29;20449;-71
2022/07/20 07:26:36;;;;;;;2.05;1.80;;;;;;;23.83;56.36;100965.22;4871832;29;20396;-72
2022/07/20 07:29:04;;;;;;;6.65;2.03;;;;;;;23.78;56.88;100961.81;4874238;29;20053;-71
2022/07/20 07:31:33;;;;;;;3.90;2.05;;;;;;;23.72;57.04;100968.06;4864870;29;20970;-72
2022/07/20 07:34:02;;;;;;;3.03;1.80;;;;;;;23.66;57.35;100962.03;4869244;29;20113;-71
2022/07/20 07:36:30;;;;;;;4.22;1.60;;;;;;;23.62;57.58;100972.69;4867600;29;20052;-71
2022/07/20 07:38:59;;;;;;;3.00;1.58;;;;;;;23.55;57.89;100965.78;4882454;29;20053;-72
2022/07/20 07:41:29;;;;;;;4.80;1.95;;;;;;;23.48;58.13;100969.47;4877607;29;20049;-71
2022/07/20 07:43:58;;;;;;;3.63;2.10;;;;;;;23.37;58.90;100961.75;4863698;29;20045;-72
2022/07/20 07:46:27;;;;;;;2.33;1.67;;;;;;;23.24;59.99;100969.94;4872713;29;20077;-72
2022/07/20 07:48:55;;;;;;;5.22;2.10;;;;;;;23.16;59.32;100978.88;4872055;29;20139;-72
2022/07/20 07:51:24;;;;;;;2.90;2.05;;;;;;;23.10;59.84;100973.72;4872238;29;20121;-72
2022/07/20 07:53:53;;;;;;;3.50;2.08;;;;;;;23.05;59.70;100974.72;4868765;29;20957;-71
2022/07/20 07:56:21;;;;;;;4.88;1.95;;;;;;;23.01;59.96;100981.81;4866582;29;20045;-72
2022/07/20 07:58:52;;;;;;;3.25;2.00;;;;;;;22.93;60.91;100981.91;4869394;29;21233;-72
2022/07/20 08:01:20;;;;;;;3.67;1.98;;;;;;;22.85;60.86;100975.03;4871909;29;20054;-72
2022/07/20 08:03:49;;;;;;;3.25;1.80;;;;;;;22.77;61.17;100983.97;4884843;29;20415;-72
2022/07/20 08:06:32;;;;;;;4.05;2.10;;;;;;;22.72;61.32;100982.28;4866433;29;20050;-71
2022/07/20 08:09:00;;;;;;;4.63;2.38;;;;;;;22.65;61.23;100986.78;4877398;29;20049;-71
2022/07/20 08:11:30;;;;;;;3.30;1.70;;;;;;;22.59;61.40;101000.09;4876849;29;20061;-71
2022/07/20 08:14:02;;;;;;;3.22;2.03;;;;;;;22.53;62.02;100989.63;4876268;29;20049;-71
2022/07/20 08:16:32;;;;;;;2.00;1.50;;;;;;;22.47;62.68;101002.91;4867895;29;20121;-72
2022/07/20 08:19:00;;;;;;;2.60;1.50;;;;;;;22.36;62.22;101003.97;4877404;29;20515;-71
2022/07/20 08:21:29;;;;;;;2.92;1.80;;;;;;;22.27;63.09;101005.88;4872375;29;20056;-72
2022/07/20 08:23:57;;;;;;;3.95;1.75;;;;;;;22.21;62.83;100998.91;4871934;29;20053;-72
2022/07/20 08:26:26;;;;;;;3.92;2.00;;;;;;;22.16;64.30;101000.72;4870928;28;20523;-71
2022/07/20 08:28:55;;;;;;;3.42;1.40;;;;;;;22.11;62.80;100992.00;4866860;29;20144;-72
2022/07/20 08:31:25;;;;;;;6.13;1.60;;;;;;;22.07;62.99;101003.47;4859736;29;20132;-71
2022/07/20 08:33:53;;;;;;;3.50;1.75;;;;;;;22.01;65.15;100999.16;4865232;29;20048;-73
2022/07/20 08:36:22;;;;;;;2.55;1.63;;;;;;;21.95;64.11;100999.25;4869358;29;20418;-73
2022/07/20 08:38:51;;;;;;;3.33;1.58;;;;;;;21.89;62.80;101000.19;4867944;29;20500;-72
2022/07/20 08:41:20;;;;;;;2.38;1.55;;;;;;;21.87;61.94;100999.34;4860033;29;20101;-73
2022/07/20 08:43:48;;;;;;;2.40;1.58;;;;;;;21.86;60.47;100999.38;4862205;29;20113;-73
2022/07/20 08:46:18;;;;;;;4.70;1.10;;;;;;;21.83;60.57;101000.31;4858594;29;20524;-72
2022/07/20 08:48:50;;;;;;;4.10;1.20;;;;;;;21.85;60.36;101001.16;4867423;29;20057;-73
2022/07/20 08:51:18;;;;;;;2.75;1.40;;;;;;;21.87;60.95;101001.97;4864041;29;20664;-72
2022/07/20 08:53:49;;;;;;;3.13;2.10;;;;;;;21.88;62.28;101008.13;4863110;29;20320;-72
2022/07/20 08:56:18;;;;;;;3.17;1.90;;;;;;;21.86;62.09;101002.88;4857392;29;20061;-74
2022/07/20 08:58:46;;;;;;;4.80;1.92;;;;;;;21.83;62.24;101004.66;4863430;29;20056;-72
2022/07/20 09:01:16;;;;;;;5.57;1.92;;;;;;;21.77;62.77;101004.78;4866930;29;20061;-73
2022/07/20 09:03:47;;;;;;;2.88;1.85;;;;;;;21.72;64.36;101007.47;4858008;29;20046;-72
2022/07/20 09:06:17;;;;;;;4.10;2.05;;;;;;;21.66;64.13;101011.03;4865776;29;20487;-73
2022/07/20 09:09:04;;;;;;;5.47;2.42;;;;;;;21.63;64.81;101007.59;4857795;29;20113;-73
2022/07/20 09:11:33;;;;;;;4.65;2.35;;;;;;;21.60;65.27;101007.59;4858063;29;20061;-73
2022/07/20 09:14:01;;;;;;;7.57;2.58;;;;;;;21.52;66.89;101026.13;4863883;29;20480;-73
2022/07/20 09:16:36;;;;;;;4.80;2.30;;;;;;;21.45;67.47;101027.94;4856083;29;20057;-72
2022/07/20 09:19:05;;;;;;;3.25;2.60;;;;;;;21.38;68.35;101022.75;4850503;29;20054;-72
2022/07/20 09:21:36;;;;;;;3.55;2.30;;;;;;;21.28;68.75;101025.47;4857434;29;20049;-71
2022/07/20 09:24:06;;;;;;;3.78;2.10;;;;;;;21.23;68.39;101023.78;4856432;29;20042;-71
2022/07/20 09:26:35;;;;;;;8.68;3.22;;;;;;;21.17;69.14;101021.22;4870069;28;20456;-71
2022/07/20 09:29:06;;;;;;;4.55;2.38;;;;;;;21.11;69.04;101024.78;4867959;29;20052;-71
2022/07/20 09:31:36;;;;;;;5.18;2.70;;;;;;;21.05;69.31;101023.09;4874481;29;20056;-72
2022/07/20 09:34:23;;;;;;;6.70;2.78;;;;;;;21.02;70.38;101028.34;4872929;29;20057;-71
2022/07/20 09:36:53;;;;;;;4.25;2.90;;;;;;;20.98;70.27;101029.28;4873962;29;20106;-71
2022/07/20 09:39:23;;;;;;;4.47;2.38;;;;;;;20.96;70.64;101025.81;4874644;29;20045;-71
2022/07/20 09:41:56;;;;;;;6.03;2.65;;;;;;;20.90;70.96;101025.84;4868612;29;20048;-71
2022/07/20 09:44:30;;;;;;;7.47;2.22;;;;;;;20.85;71.69;101038.16;4869651;29;20146;-72
2022/07/20 09:47:00;;;;;;;4.85;2.55;;;;;;;20.79;71.89;101032.94;4868059;29;20061;-71
2022/07/20 09:49:41;;;;;;;3.58;2.60;;;;;;;20.76;72.31;101033.00;4870423;29;20100;-71
2022/07/20 09:52:13;;;;;;;5.55;2.70;;;;;;;20.70;72.41;101029.50;4867178;29;20054;-72
2022/07/20 09:54:41;;;;;;;5.22;3.00;;;;;;;20.67;72.86;101034.78;4870196;29;20439;-72
2022/07/20 09:57:10;;;;;;;4.57;2.58;;;;;;;20.62;72.50;101036.59;4875065;29;20104;-72
2022/07/20 09:59:41;;;;;;;5.03;2.60;;;;;;;20.60;73.22;101033.09;4871869;29;20045;-71
2022/07/20 10:02:11;;;;;;;4.80;2.40;;;;;;;20.55;72.44;101037.50;4880235;29;20048;-71
2022/07/20 10:04:39;;;;;;;8.70;2.45;;;;;;;20.50;72.66;101037.53;4874670;29;20110;-71
2022/07/20 10:07:10;;;;;;;4.13;2.58;;;;;;;20.48;72.70;101048.94;4870344;29;20045;-71
2022/07/20 10:09:38;;;;;;;4.00;2.28;;;;;;;20.43;72.83;101046.34;4867578;29;20075;-73
2022/07/20 10:12:08;;;;;;;3.83;2.20;;;;;;;20.37;72.51;101041.13;4873318;29;20077;-71
2022/07/20 10:14:41;;;;;;;5.25;2.58;;;;;;;20.32;73.63;101049.88;4869261;29;20053;-71
2022/07/20 10:17:10;;;;;;;4.75;2.53;;;;;;;20.22;74.35;101051.69;4868806;29;20045;-73
2022/07/20 10:19:48;;;;;;;3.85;1.92;;;;;;;20.18;74.68;101048.25;4864371;29;20056;-71
2022/07/20 10:22:19;;;;;;;4.70;2.83;;;;;;;20.15;74.68;101050.84;4868768;29;20060;-71
2022/07/20 10:24:47;;;;;;;3.03;2.08;;;;;;;20.11;74.21;101057.00;4862567;29;20109;-71
2022/07/20 10:27:36;;;;;;;5.68;2.75;;;;;;;20.08;74.84;101055.28;4873702;28;20523;-72
2022/07/20 10:30:17;;;;;;;3.78;2.38;;;;;;;20.04;74.77;101050.94;4869901;29;20085;-72
2022/07/20 10:32:56;;;;;;;7.03;2.40;;;;;;;20.02;74.63;101049.16;4865497;29;20061;-72
2022/07/20 10:35:29;;;;;;;5.18;2.30;;;;;;;20.00;74.60;101061.47;4876223;29;20076;-73
2022/07/20 10:38:00;;;;;;;4.25;2.47;;;;;;;19.97;74.84;101061.47;4874713;29;20052;-73
2022/07/20 10:40:29;;;;;;;6.32;2.45;;;;;;;19.94;75.15;101066.72;4873714;29;20970;-71
2022/07/20 10:43:15;;;;;;;5.38;2.60;;;;;;;19.87;74.67;101058.00;4865767;29;20057;-71
2022/07/20 10:45:45;;;;;;;3.63;2.55;;;;;;;19.83;75.67;101067.63;4873114;29;20096;-71
2022/07/20 10:48:21;;;;;;;3.53;2.50;;;;;;;19.79;75.08;101065.91;4868321;29;20057;-71
2022/07/20 10:50:52;;;;;;;7.60;2.50;;;;;;;19.76;76.92;101073.78;4868091;29;20145;-72
2022/07/20 10:53:33;;;;;;;5.30;2.42;;;;;;;19.68;77.79;101070.31;4871346;29;20077;-71
2022/07/20 10:56:03;;;;;;;3.40;2.25;;;;;;;19.61;76.94;101073.81;4875559;29;20114;-71
2022/07/20 10:58:32;;;;;;;6.32;2.30;;;;;;;19.57;77.27;101077.31;4877071;29;20653;-71
2022/07/20 11:01:03;;;;;;;3.60;2.33;;;;;;;19.54;77.24;101083.47;4871487;29;20052;-71
2022/07/20 11:03:33;;;;;;;3.75;2.40;;;;;;;19.50;77.80;101080.84;4874283;29;20063;-70
2022/07/20 11:06:08;;;;;;;7.45;2.47;;;;;;;19.48;77.04;101080.84;4869442;29;20045;-71
2022/07/20 11:08:39;;;;;;;4.55;2.38;;;;;;;19.46;76.79;101091.31;4875719;29;20125;-71
2022/07/20 11:11:08;;;;;;;4.40;2.35;;;;;;;19.43;76.99;101090.47;4882534;29;20064;-72
2022/07/20 11:13:38;;;;;;;5.03;2.53;;;;;;;19.39;77.28;101096.59;4873929;29;20505;-71
2022/07/20 11:16:07;;;;;;;7.22;2.50;;;;;;;19.37;78.02;101096.59;4876129;29;20060;-70
2022/07/20 11:18:37;;;;;;;3.70;2.38;;;;;;;19.36;78.03;101099.25;4873993;29;20057;-71
2022/07/20 11:21:08;;;;;;;2.80;2.38;;;;;;;19.34;78.79;101101.84;4876119;29;20109;-71
2022/07/20 11:23:47;;;;;;;5.22;2.38;;;;;;;19.32;77.93;101098.34;4868964;29;20078;-71
2022/07/20 11:26:29;;;;;;;3.45;2.53;;;;;;;19.26;78.73;101093.09;4878739;29;20060;-71
2022/07/20 11:29:00;;;;;;;3.53;2.38;;;;;;;19.18;80.31;101106.25;4860290;29;20113;-72
2022/07/20 11:31:29;;;;;;;3.15;1.83;;;;;;;19.11;80.61;101111.50;4852886;29;20065;-71
2022/07/20 11:33:59;;;;;;;2.75;1.83;;;;;;;19.04;80.63;101110.63;4857148;29;20057;-72
2022/07/20 11:36:29;;;;;;;3.35;2.20;;;;;;;18.97;80.39;101117.59;4857643;29;20832;-73
2022/07/20 11:39:01;;;;;;;3.83;2.47;;;;;;;18.89;80.30;101119.34;4855005;29;20480;-71
2022/07/20 11:41:36;;;;;;;3.45;2.30;;;;;;;18.86;80.77;101119.34;4858354;29;20068;-72
2022/07/20 11:44:05;;;;;;;3.70;2.20;;;;;;;18.80;81.54;101124.56;4845700;29;20046;-72